sensor_id;sensor_type;location;lat;lon;timestamp;pressure;altitude;pressure_sealevel;temperature;humidity
4449;BME280;2237;51.870;6.160;2023-04-28T00:01:09;101270.00;;;12.30;47.31
4449;BME280;2237;51.870;6.160;2023-04-28T00:03:36;101264.66;;;12.35;46.85
4449;BME280;2237;51.870;6.160;2023-04-28T00:06:03;101262.97;;;12.32;47.39
4449;BME280;2237;51.870;6.160;2023-04-28T00:08:29;101255.09;;;12.34;47.00
4449;BME280;2237;51.870;6.160;2023-04-28T00:10:55;101253.53;;;12.27;47.26
4449;BME280;2237;51.870;6.160;2023-04-28T00:13:22;101257.09;;;12.23;47.47
4449;BME280;2237;51.870;6.160;2023-04-28T00:15:49;101249.44;;;12.15;47.81
4449;BME280;2237;51.870;6.160;2023-04-28T00:18:18;101246.78;;;12.17;47.89
4449;BME280;2237;51.870;6.160;2023-04-28T00:20:45;101251.25;;;12.10;48.24
4449;BME280;2237;51.870;6.160;2023-04-28T00:23:11;101253.91;;;12.09;48.25
4449;BME280;2237;51.870;6.160;2023-04-28T00:25:38;101253.66;;;12.21;48.22
4449;BME280;2237;51.870;6.160;2023-04-28T00:28:04;101247.69;;;12.16;48.16
4449;BME280;2237;51.870;6.160;2023-04-28T00:30:30;101245.84;;;12.19;48.25
4449;BME280;2237;51.870;6.160;2023-04-28T00:32:57;101241.66;;;12.12;48.38
4449;BME280;2237;51.870;6.160;2023-04-28T00:35:23;101236.25;;;12.21;48.18
4449;BME280;2237;51.870;6.160;2023-04-28T00:37:50;101230.91;;;12.26;48.01
4449;BME280;2237;51.870;6.160;2023-04-28T00:40:16;101224.75;;;12.28;48.13
4449;BME280;2237;51.870;6.160;2023-04-28T00:42:42;101217.97;;;12.20;48.34
4449;BME280;2237;51.870;6.160;2023-04-28T00:45:09;101214.75;;;12.09;48.51
4449;BME280;2237;51.870;6.160;2023-04-28T00:47:36;101219.16;;;12.07;48.88
4449;BME280;2237;51.870;6.160;2023-04-28T00:50:03;101220.06;;;12.06;49.02
4449;BME280;2237;51.870;6.160;2023-04-28T00:52:31;101219.31;;;12.01;49.04
4449;BME280;2237;51.870;6.160;2023-04-28T00:54:58;101213.16;;;12.02;49.25
4449;BME280;2237;51.870;6.160;2023-04-28T00:57:24;101207.72;;;12.12;49.11
4449;BME280;2237;51.870;6.160;2023-04-28T00:59:51;101208.47;;;12.19;48.91
4449;BME280;2237;51.870;6.160;2023-04-28T01:02:17;101204.00;;;12.22;48.96
4449;BME280;2237;51.870;6.160;2023-04-28T01:04:44;101194.66;;;12.12;49.08
4449;BME280;2237;51.870;6.160;2023-04-28T01:07:11;101189.53;;;12.09;49.09
4449;BME280;2237;51.870;6.160;2023-04-28T01:09:38;101191.66;;;11.92;49.73
4449;BME280;2237;51.870;6.160;2023-04-28T01:12:04;101179.28;;;11.99;49.78
4449;BME280;2237;51.870;6.160;2023-04-28T01:14:32;101179.28;;;11.99;50.04
4449;BME280;2237;51.870;6.160;2023-04-28T01:16:58;101173.31;;;11.94;49.98
4449;BME280;2237;51.870;6.160;2023-04-28T01:19:25;101173.31;;;11.95;50.11
4449;BME280;2237;51.870;6.160;2023-04-28T01:21:53;101163.69;;;11.97;50.15
4449;BME280;2237;51.870;6.160;2023-04-28T01:24:19;101174.44;;;11.83;50.48
4449;BME280;2237;51.870;6.160;2023-04-28T01:26:46;101170.03;;;11.85;50.58
4449;BME280;2237;51.870;6.160;2023-04-28T01:29:12;101163.44;;;11.68;51.49
4449;BME280;2237;51.870;6.160;2023-04-28T01:31:38;101171.91;;;11.79;52.13
4449;BME280;2237;51.870;6.160;2023-04-28T01:34:06;101167.63;;;11.76;53.86
4449;BME280;2237;51.870;6.160;2023-04-28T01:36:33;101174.41;;;11.85;54.59
4449;BME280;2237;51.870;6.160;2023-04-28T01:39:03;101170.78;;;11.90;56.29
4449;BME280;2237;51.870;6.160;2023-04-28T01:41:29;101165.56;;;11.90;57.69
4449;BME280;2237;51.870;6.160;2023-04-28T01:43:56;101170.78;;;11.90;57.57
4449;BME280;2237;51.870;6.160;2023-04-28T01:46:22;101155.06;;;11.94;57.92
4449;BME280;2237;51.870;6.160;2023-04-28T01:48:48;101158.53;;;11.94;57.82
4449;BME280;2237;51.870;6.160;2023-04-28T01:51:15;101160.06;;;12.04;57.00
4449;BME280;2237;51.870;6.160;2023-04-28T01:53:41;101145.47;;;11.94;57.59
4449;BME280;2237;51.870;6.160;2023-04-28T01:56:08;101149.91;;;11.90;57.36
4449;BME280;2237;51.870;6.160;2023-04-28T01:58:34;101142.94;;;11.93;58.14
4449;BME280;2237;51.870;6.160;2023-04-28T02:01:00;101146.75;;;11.76;60.32
4449;BME280;2237;51.870;6.160;2023-04-28T02:03:27;101157.25;;;11.73;62.43
4449;BME280;2237;51.870;6.160;2023-04-28T02:05:54;101162.47;;;11.75;63.36
4449;BME280;2237;51.870;6.160;2023-04-28T02:08:20;101170.91;;;11.84;63.63
4449;BME280;2237;51.870;6.160;2023-04-28T02:10:47;101163.00;;;11.89;64.23
4449;BME280;2237;51.870;6.160;2023-04-28T02:13:13;101161.19;;;11.93;65.75
4449;BME280;2237;51.870;6.160;2023-04-28T02:15:40;101155.91;;;11.96;66.35
4449;BME280;2237;51.870;6.160;2023-04-28T02:18:08;101155.78;;;12.00;67.65
4449;BME280;2237;51.870;6.160;2023-04-28T02:20:35;101140.88;;;12.05;68.46
4449;BME280;2237;51.870;6.160;2023-04-28T02:23:01;101134.84;;;12.02;70.76
4449;BME280;2237;51.870;6.160;2023-04-28T02:25:27;101133.22;;;11.98;72.71
4449;BME280;2237;51.870;6.160;2023-04-28T02:27:54;101132.41;;;11.96;73.80
4449;BME280;2237;51.870;6.160;2023-04-28T02:30:20;101141.38;;;11.84;75.56
4449;BME280;2237;51.870;6.160;2023-04-28T02:32:47;101138.78;;;11.84;74.98
4449;BME280;2237;51.870;6.160;2023-04-28T02:35:13;101146.56;;;11.85;75.11
4449;BME280;2237;51.870;6.160;2023-04-28T02:37:40;101135.31;;;11.82;74.69
4449;BME280;2237;51.870;6.160;2023-04-28T02:40:06;101133.88;;;11.67;77.06
4449;BME280;2237;51.870;6.160;2023-04-28T02:42:33;101126.94;;;11.69;76.51
4449;BME280;2237;51.870;6.160;2023-04-28T02:44:59;101115.69;;;11.64;75.20
4449;BME280;2237;51.870;6.160;2023-04-28T02:47:26;101113.25;;;11.55;75.42
4449;BME280;2237;51.870;6.160;2023-04-28T02:49:52;101122.75;;;11.59;74.81
4449;BME280;2237;51.870;6.160;2023-04-28T02:52:18;101106.28;;;11.57;74.13
4449;BME280;2237;51.870;6.160;2023-04-28T02:54:45;101110.81;;;11.49;74.54
4449;BME280;2237;51.870;6.160;2023-04-28T02:57:14;101107.03;;;11.62;73.27
4449;BME280;2237;51.870;6.160;2023-04-28T02:59:40;101096.72;;;11.58;73.89
4449;BME280;2237;51.870;6.160;2023-04-28T03:02:07;101091.59;;;11.53;74.25
4449;BME280;2237;51.870;6.160;2023-04-28T03:04:34;101083.88;;;11.49;75.43
4449;BME280;2237;51.870;6.160;2023-04-28T03:07:01;101077.72;;;11.51;75.32
4449;BME280;2237;51.870;6.160;2023-04-28T03:09:27;101077.03;;;11.43;75.76
4449;BME280;2237;51.870;6.160;2023-04-28T03:11:53;101065.81;;;11.38;75.83
4449;BME280;2237;51.870;6.160;2023-04-28T03:14:20;101064.06;;;11.40;75.47
4449;BME280;2237;51.870;6.160;2023-04-28T03:16:46;101060.84;;;11.27;77.61
4449;BME280;2237;51.870;6.160;2023-04-28T03:19:13;101054.03;;;11.20;78.61
4449;BME280;2237;51.870;6.160;2023-04-28T03:21:39;101049.94;;;11.09;80.99
4449;BME280;2237;51.870;6.160;2023-04-28T03:24:05;101044.53;;;11.19;80.45
4449;BME280;2237;51.870;6.160;2023-04-28T03:26:32;101035.84;;;11.17;80.72
4449;BME280;2237;51.870;6.160;2023-04-28T03:28:59;101031.69;;;11.09;81.78
4449;BME280;2237;51.870;6.160;2023-04-28T03:31:25;101030.81;;;11.11;82.69
4449;BME280;2237;51.870;6.160;2023-04-28T03:33:51;101024.84;;;11.05;84.05
4449;BME280;2237;51.870;6.160;2023-04-28T03:36:18;101021.34;;;11.06;84.72
4449;BME280;2237;51.870;6.160;2023-04-28T03:38:44;101036.09;;;11.07;85.81
4449;BME280;2237;51.870;6.160;2023-04-28T03:41:10;101039.47;;;11.12;85.49
4449;BME280;2237;51.870;6.160;2023-04-28T03:43:37;101037.53;;;11.21;85.68
4449;BME280;2237;51.870;6.160;2023-04-28T03:46:03;101036.78;;;11.16;86.84
4449;BME280;2237;51.870;6.160;2023-04-28T03:48:30;101040.94;;;11.23;85.68
4449;BME280;2237;51.870;6.160;2023-04-28T03:50:56;101049.56;;;11.28;87.20
4449;BME280;2237;51.870;6.160;2023-04-28T03:53:23;101035.84;;;11.19;88.24
4449;BME280;2237;51.870;6.160;2023-04-28T03:55:49;101035.91;;;11.16;89.37
4449;BME280;2237;51.870;6.160;2023-04-28T03:58:16;101030.75;;;11.14;90.37
4449;BME280;2237;51.870;6.160;2023-04-28T04:00:42;101023.59;;;11.22;90.26
4449;BME280;2237;51.870;6.160;2023-04-28T04:03:08;101033.59;;;11.02;93.96
4449;BME280;2237;51.870;6.160;2023-04-28T04:05:35;101026.50;;;11.09;94.26
4449;BME280;2237;51.870;6.160;2023-04-28T04:08:01;101027.28;;;11.14;92.99
4449;BME280;2237;51.870;6.160;2023-04-28T04:10:28;101025.72;;;11.04;95.87
4449;BME280;2237;51.870;6.160;2023-04-28T04:12:54;101028.03;;;11.17;95.16
4449;BME280;2237;51.870;6.160;2023-04-28T04:15:21;101015.09;;;11.14;97.31
4449;BME280;2237;51.870;6.160;2023-04-28T04:17:47;101014.94;;;11.22;97.57
4449;BME280;2237;51.870;6.160;2023-04-28T04:20:13;101009.56;;;11.28;97.85
4449;BME280;2237;51.870;6.160;2023-04-28T04:22:40;101016.47;;;11.30;99.04
4449;BME280;2237;51.870;6.160;2023-04-28T04:25:07;101018.59;;;11.13;100.00
4449;BME280;2237;51.870;6.160;2023-04-28T04:27:33;101021.22;;;11.12;100.00
4449;BME280;2237;51.870;6.160;2023-04-28T04:29:59;101012.44;;;11.16;100.00
4449;BME280;2237;51.870;6.160;2023-04-28T04:32:26;101011.66;;;11.12;100.00
4449;BME280;2237;51.870;6.160;2023-04-28T04:34:52;101012.50;;;11.13;100.00
4449;BME280;2237;51.870;6.160;2023-04-28T04:37:19;101011.47;;;11.21;100.00
4449;BME280;2237;51.870;6.160;2023-04-28T04:39:45;101002.91;;;11.15;100.00
4449;BME280;2237;51.870;6.160;2023-04-28T04:42:11;100995.00;;;11.18;100.00
4449;BME280;2237;51.870;6.160;2023-04-28T04:44:50;100991.72;;;11.10;100.00
4449;BME280;2237;51.870;6.160;2023-04-28T04:47:16;100984.94;;;11.03;100.00
4449;BME280;2237;51.870;6.160;2023-04-28T04:49:43;100979.88;;;10.97;100.00
4449;BME280;2237;51.870;6.160;2023-04-28T04:52:09;100982.34;;;11.01;100.00
4449;BME280;2237;51.870;6.160;2023-04-28T04:54:35;100974.38;;;11.09;100.00
4449;BME280;2237;51.870;6.160;2023-04-28T04:57:02;100993.44;;;11.11;100.00
4449;BME280;2237;51.870;6.160;2023-04-28T04:59:28;100991.78;;;11.07;100.00
4449;BME280;2237;51.870;6.160;2023-04-28T05:01:55;100984.72;;;11.12;100.00
4449;BME280;2237;51.870;6.160;2023-04-28T05:04:21;100988.19;;;11.14;100.00
4449;BME280;2237;51.870;6.160;2023-04-28T05:06:48;100982.25;;;11.06;100.00
4449;BME280;2237;51.870;6.160;2023-04-28T05:09:15;100982.16;;;11.10;100.00
4449;BME280;2237;51.870;6.160;2023-04-28T05:11:42;100985.38;;;11.21;100.00
4449;BME280;2237;51.870;6.160;2023-04-28T05:14:08;100981.03;;;11.22;100.00
4449;BME280;2237;51.870;6.160;2023-04-28T05:16:34;100971.50;;;11.21;100.00
4449;BME280;2237;51.870;6.160;2023-04-28T05:19:01;100970.63;;;11.20;100.00
4449;BME280;2237;51.870;6.160;2023-04-28T05:21:27;100971.47;;;11.22;100.00
4449;BME280;2237;51.870;6.160;2023-04-28T05:23:53;100974.00;;;11.25;100.00
4449;BME280;2237;51.870;6.160;2023-04-28T05:26:21;100974.88;;;11.24;100.00
4449;BME280;2237;51.870;6.160;2023-04-28T05:28:47;100986.19;;;11.25;100.00
4449;BME280;2237;51.870;6.160;2023-04-28T05:31:15;100981.69;;;11.31;100.00
4449;BME280;2237;51.870;6.160;2023-04-28T05:33:41;100978.09;;;11.35;100.00
4449;BME280;2237;51.870;6.160;2023-04-28T05:36:08;100967.59;;;11.40;100.00
4449;BME280;2237;51.870;6.160;2023-04-28T05:38:34;100965.78;;;11.42;100.00
4449;BME280;2237;51.870;6.160;2023-04-28T05:41:01;100956.84;;;11.52;100.00
4449;BME280;2237;51.870;6.160;2023-04-28T05:43:27;100955.81;;;11.59;100.00
4449;BME280;2237;51.870;6.160;2023-04-28T05:45:54;100957.69;;;11.54;100.00
4449;BME280;2237;51.870;6.160;2023-04-28T05:48:20;100951.56;;;11.55;100.00
4449;BME280;2237;51.870;6.160;2023-04-28T05:50:46;100946.25;;;11.60;100.00
4449;BME280;2237;51.870;6.160;2023-04-28T05:53:13;100939.16;;;11.65;100.00
4449;BME280;2237;51.870;6.160;2023-04-28T05:55:39;100936.47;;;11.68;100.00
4449;BME280;2237;51.870;6.160;2023-04-28T05:58:06;100946.00;;;11.70;100.00
4449;BME280;2237;51.870;6.160;2023-04-28T06:00:33;100934.78;;;11.65;100.00
4449;BME280;2237;51.870;6.160;2023-04-28T06:03:00;100926.69;;;11.77;100.00
4449;BME280;2237;51.870;6.160;2023-04-28T06:05:27;100937.22;;;11.73;100.00
4449;BME280;2237;51.870;6.160;2023-04-28T06:07:54;100939.66;;;11.80;100.00
4449;BME280;2237;51.870;6.160;2023-04-28T06:10:22;100947.13;;;11.94;100.00
4449;BME280;2237;51.870;6.160;2023-04-28T06:12:48;100955.50;;;12.07;100.00
4449;BME280;2237;51.870;6.160;2023-04-28T06:15:15;100950.28;;;12.07;100.00
4449;BME280;2237;51.870;6.160;2023-04-28T06:17:41;100964.63;;;12.23;100.00
4449;BME280;2237;51.870;6.160;2023-04-28T06:20:08;100968.88;;;12.27;100.00
4449;BME280;2237;51.870;6.160;2023-04-28T06:22:36;100954.31;;;12.18;100.00
4449;BME280;2237;51.870;6.160;2023-04-28T06:25:02;100941.84;;;11.97;100.00
4449;BME280;2237;51.870;6.160;2023-04-28T06:27:29;100945.16;;;12.04;100.00
4449;BME280;2237;51.870;6.160;2023-04-28T06:29:58;100961.06;;;12.25;100.00
4449;BME280;2237;51.870;6.160;2023-04-28T06:32:24;100953.53;;;12.47;100.00
4449;BME280;2237;51.870;6.160;2023-04-28T06:34:51;100948.59;;;12.67;100.00
4449;BME280;2237;51.870;6.160;2023-04-28T06:37:17;100957.69;;;12.83;100.00
4449;BME280;2237;51.870;6.160;2023-04-28T06:39:44;100957.41;;;12.92;100.00
4449;BME280;2237;51.870;6.160;2023-04-28T06:42:10;100954.78;;;12.94;100.00
4449;BME280;2237;51.870;6.160;2023-04-28T06:44:36;100964.22;;;12.98;100.00
4449;BME280;2237;51.870;6.160;2023-04-28T06:47:03;100962.44;;;13.00;100.00
4449;BME280;2237;51.870;6.160;2023-04-28T06:49:29;100944.88;;;13.03;100.00
4449;BME280;2237;51.870;6.160;2023-04-28T06:51:56;100948.41;;;13.02;100.00
4449;BME280;2237;51.870;6.160;2023-04-28T06:54:22;100951.66;;;13.11;100.00
4449;BME280;2237;51.870;6.160;2023-04-28T06:56:49;100950.72;;;13.13;100.00
4449;BME280;2237;51.870;6.160;2023-04-28T06:59:15;100948.06;;;13.15;100.00
4449;BME280;2237;51.870;6.160;2023-04-28T07:01:41;100941.44;;;13.31;100.00
4449;BME280;2237;51.870;6.160;2023-04-28T07:04:08;100942.56;;;13.50;100.00
4449;BME280;2237;51.870;6.160;2023-04-28T07:06:35;100944.34;;;13.49;100.00
4449;BME280;2237;51.870;6.160;2023-04-28T07:09:01;100942.25;;;13.33;100.00
4449;BME280;2237;51.870;6.160;2023-04-28T07:11:28;100930.00;;;13.35;100.00
4449;BME280;2237;51.870;6.160;2023-04-28T07:13:54;100931.38;;;13.46;100.00
4449;BME280;2237;51.870;6.160;2023-04-28T07:16:21;100927.50;;;13.58;100.00
4449;BME280;2237;51.870;6.160;2023-04-28T07:18:47;100924.91;;;13.56;100.00
4449;BME280;2237;51.870;6.160;2023-04-28T07:21:13;100921.88;;;13.69;100.00
4449;BME280;2237;51.870;6.160;2023-04-28T07:23:40;100931.00;;;13.83;100.00
4449;BME280;2237;51.870;6.160;2023-04-28T07:26:07;100926.22;;;13.94;100.00
4449;BME280;2237;51.870;6.160;2023-04-28T07:28:33;100930.41;;;14.00;100.00
4449;BME280;2237;51.870;6.160;2023-04-28T07:31:00;100931.38;;;13.97;100.00
4449;BME280;2237;51.870;6.160;2023-04-28T07:33:26;100938.94;;;14.05;100.00
4449;BME280;2237;51.870;6.160;2023-04-28T07:35:53;100939.16;;;13.99;100.00
4449;BME280;2237;51.870;6.160;2023-04-28T07:38:19;100938.72;;;14.11;100.00
4449;BME280;2237;51.870;6.160;2023-04-28T07:40:46;100936.19;;;14.09;100.00
4449;BME280;2237;51.870;6.160;2023-04-28T07:43:12;100926.63;;;14.32;100.00
4449;BME280;2237;51.870;6.160;2023-04-28T07:45:39;100927.09;;;14.44;100.00
4449;BME280;2237;51.870;6.160;2023-04-28T07:48:06;100926.88;;;14.50;100.00
4449;BME280;2237;51.870;6.160;2023-04-28T07:50:33;100930.31;;;14.28;100.00
4449;BME280;2237;51.870;6.160;2023-04-28T07:52:59;100920.38;;;14.12;100.00
4449;BME280;2237;51.870;6.160;2023-04-28T07:55:26;100918.88;;;14.29;100.00
4449;BME280;2237;51.870;6.160;2023-04-28T07:57:52;100919.88;;;14.51;100.00
4449;BME280;2237;51.870;6.160;2023-04-28T08:00:19;100916.88;;;14.60;100.00
4449;BME280;2237;51.870;6.160;2023-04-28T08:02:46;100922.25;;;14.57;100.00
4449;BME280;2237;51.870;6.160;2023-04-28T08:05:13;100925.13;;;14.51;100.00
4449;BME280;2237;51.870;6.160;2023-04-28T08:07:40;100915.28;;;14.79;100.00
4449;BME280;2237;51.870;6.160;2023-04-28T08:10:09;100921.75;;;14.92;100.00
4449;BME280;2237;51.870;6.160;2023-04-28T08:12:35;100915.94;;;15.07;100.00
4449;BME280;2237;51.870;6.160;2023-04-28T08:15:02;100910.63;;;15.31;100.00
4449;BME280;2237;51.870;6.160;2023-04-28T08:17:29;100904.28;;;15.36;100.00
4449;BME280;2237;51.870;6.160;2023-04-28T08:19:55;100906.38;;;15.50;100.00
4449;BME280;2237;51.870;6.160;2023-04-28T08:22:21;100916.19;;;15.87;100.00
4449;BME280;2237;51.870;6.160;2023-04-28T08:24:48;100907.63;;;16.22;100.00
4449;BME280;2237;51.870;6.160;2023-04-28T08:27:14;100909.09;;;16.48;100.00
4449;BME280;2237;51.870;6.160;2023-04-28T08:29:41;100903.03;;;16.66;100.00
4449;BME280;2237;51.870;6.160;2023-04-28T08:32:07;100920.53;;;16.47;100.00
4449;BME280;2237;51.870;6.160;2023-04-28T08:34:34;100915.03;;;16.32;100.00
4449;BME280;2237;51.870;6.160;2023-04-28T08:37:00;100917.03;;;16.07;100.00
4449;BME280;2237;51.870;6.160;2023-04-28T08:39:27;100906.81;;;16.01;100.00
4449;BME280;2237;51.870;6.160;2023-04-28T08:41:55;100913.34;;;15.91;100.00
4449;BME280;2237;51.870;6.160;2023-04-28T08:44:21;100909.44;;;16.01;100.00
4449;BME280;2237;51.870;6.160;2023-04-28T08:46:49;100906.28;;;16.13;100.00
4449;BME280;2237;51.870;6.160;2023-04-28T08:49:22;100903.94;;;16.26;100.00
4449;BME280;2237;51.870;6.160;2023-04-28T08:51:55;100894.56;;;16.59;100.00
4449;BME280;2237;51.870;6.160;2023-04-28T08:54:31;100899.63;;;16.82;100.00
4449;BME280;2237;51.870;6.160;2023-04-28T08:57:01;100908.97;;;17.07;100.00
4449;BME280;2237;51.870;6.160;2023-04-28T08:59:30;100907.16;;;16.90;100.00
4449;BME280;2237;51.870;6.160;2023-04-28T09:01:56;100903.16;;;17.00;100.00
4449;BME280;2237;51.870;6.160;2023-04-28T09:04:23;100901.75;;;16.93;100.00
4449;BME280;2237;51.870;6.160;2023-04-28T09:06:50;100898.75;;;17.01;100.00
4449;BME280;2237;51.870;6.160;2023-04-28T09:09:23;100911.41;;;17.11;100.00
4449;BME280;2237;51.870;6.160;2023-04-28T09:11:55;100914.81;;;17.13;100.00
4449;BME280;2237;51.870;6.160;2023-04-28T09:14:24;100907.44;;;17.03;100.00
4449;BME280;2237;51.870;6.160;2023-04-28T09:16:51;100906.84;;;16.96;100.00
4449;BME280;2237;51.870;6.160;2023-04-28T09:19:18;100906.94;;;16.94;100.00
4449;BME280;2237;51.870;6.160;2023-04-28T09:21:53;100909.56;;;16.94;100.00
4449;BME280;2237;51.870;6.160;2023-04-28T09:24:33;100908.72;;;17.30;100.00
4449;BME280;2237;51.870;6.160;2023-04-28T09:27:03;100909.38;;;17.52;100.00
4449;BME280;2237;51.870;6.160;2023-04-28T09:29:30;100910.28;;;17.70;100.00
4449;BME280;2237;51.870;6.160;2023-04-28T09:32:14;100894.63;;;18.01;100.00
4449;BME280;2237;51.870;6.160;2023-04-28T09:34:43;100905.66;;;18.25;100.00
4449;BME280;2237;51.870;6.160;2023-04-28T09:37:21;100899.03;;;18.50;100.00
4449;BME280;2237;51.870;6.160;2023-04-28T09:39:49;100899.91;;;18.67;100.00
4449;BME280;2237;51.870;6.160;2023-04-28T09:42:45;100886.19;;;18.76;100.00
4449;BME280;2237;51.870;6.160;2023-04-28T09:45:13;100895.84;;;18.77;100.00
4449;BME280;2237;51.870;6.160;2023-04-28T09:47:41;100891.81;;;18.70;100.00
4449;BME280;2237;51.870;6.160;2023-04-28T09:50:10;100885.91;;;18.49;100.00
4449;BME280;2237;51.870;6.160;2023-04-28T09:52:44;100890.88;;;18.38;100.00
4449;BME280;2237;51.870;6.160;2023-04-28T09:55:14;100878.44;;;18.24;100.00
4449;BME280;2237;51.870;6.160;2023-04-28T09:57:41;100882.78;;;18.25;100.00
4449;BME280;2237;51.870;6.160;2023-04-28T10:00:09;100877.47;;;18.10;100.00
4449;BME280;2237;51.870;6.160;2023-04-28T10:02:37;100879.19;;;18.11;100.00
4449;BME280;2237;51.870;6.160;2023-04-28T10:05:07;100878.56;;;18.38;100.00
4449;BME280;2237;51.870;6.160;2023-04-28T10:07:36;100875.31;;;18.50;100.00
4449;BME280;2237;51.870;6.160;2023-04-28T10:10:02;100876.44;;;18.45;100.00
4449;BME280;2237;51.870;6.160;2023-04-28T10:12:31;100877.00;;;18.51;100.00
4449;BME280;2237;51.870;6.160;2023-04-28T10:14:58;100876.03;;;18.37;100.00
4449;BME280;2237;51.870;6.160;2023-04-28T10:17:25;100878.28;;;18.27;100.00
4449;BME280;2237;51.870;6.160;2023-04-28T10:19:53;100880.00;;;18.28;100.00
4449;BME280;2237;51.870;6.160;2023-04-28T10:27:39;100870.47;;;18.74;100.00
4449;BME280;2237;51.870;6.160;2023-04-28T10:35:44;100877.88;;;18.68;100.00
4449;BME280;2237;51.870;6.160;2023-04-28T10:38:15;100873.09;;;18.58;100.00
4449;BME280;2237;51.870;6.160;2023-04-28T10:40:49;100875.06;;;18.22;100.00
4449;BME280;2237;51.870;6.160;2023-04-28T10:56:15;100882.81;;;17.39;100.00
4449;BME280;2237;51.870;6.160;2023-04-28T10:58:56;100880.63;;;17.30;100.00
4449;BME280;2237;51.870;6.160;2023-04-28T11:01:24;100883.91;;;17.35;100.00
4449;BME280;2237;51.870;6.160;2023-04-28T11:03:57;100876.63;;;17.40;100.00
4449;BME280;2237;51.870;6.160;2023-04-28T11:06:37;100883.91;;;17.35;100.00
4449;BME280;2237;51.870;6.160;2023-04-28T11:11:38;100881.31;;;17.17;100.00
4449;BME280;2237;51.870;6.160;2023-04-28T11:16:55;100878.03;;;17.65;100.00
4449;BME280;2237;51.870;6.160;2023-04-28T11:19:26;100874.25;;;17.87;100.00
4449;BME280;2237;51.870;6.160;2023-04-28T11:21:55;100876.66;;;18.25;100.00
4449;BME280;2237;51.870;6.160;2023-04-28T11:24:23;100875.38;;;18.16;100.00
4449;BME280;2237;51.870;6.160;2023-04-28T11:26:57;100871.56;;;18.37;100.00
4449;BME280;2237;51.870;6.160;2023-04-28T11:29:32;100872.34;;;18.56;100.00
4449;BME280;2237;51.870;6.160;2023-04-28T11:32:01;100871.06;;;18.46;100.00
4449;BME280;2237;51.870;6.160;2023-04-28T11:34:28;100870.09;;;18.49;100.00
4449;BME280;2237;51.870;6.160;2023-04-28T11:36:54;100869.72;;;18.39;100.00
4449;BME280;2237;51.870;6.160;2023-04-28T11:39:29;100873.97;;;18.42;100.00
4449;BME280;2237;51.870;6.160;2023-04-28T11:41:57;100878.72;;;18.02;100.00
4449;BME280;2237;51.870;6.160;2023-04-28T11:44:26;100880.34;;;17.88;100.00
4449;BME280;2237;51.870;6.160;2023-04-28T11:46:54;100877.56;;;17.91;100.00
4449;BME280;2237;51.870;6.160;2023-04-28T11:49:23;100893.88;;;17.82;100.00
4449;BME280;2237;51.870;6.160;2023-04-28T11:51:50;100892.63;;;17.53;100.00
4449;BME280;2237;51.870;6.160;2023-04-28T11:54:24;100891.16;;;17.47;100.00
4449;BME280;2237;51.870;6.160;2023-04-28T11:56:53;100888.91;;;17.23;100.00
4449;BME280;2237;51.870;6.160;2023-04-28T11:59:25;100895.81;;;17.07;100.00
4449;BME280;2237;51.870;6.160;2023-04-28T12:02:00;100894.56;;;16.97;100.00
4449;BME280;2237;51.870;6.160;2023-04-28T12:07:00;100893.84;;;16.93;100.00
4449;BME280;2237;51.870;6.160;2023-04-28T12:09:28;100898.09;;;16.95;100.00
4449;BME280;2237;51.870;6.160;2023-04-28T12:11:59;100894.00;;;16.90;100.00
4449;BME280;2237;51.870;6.160;2023-04-28T12:14:28;100899.81;;;16.78;100.00
4449;BME280;2237;51.870;6.160;2023-04-28T12:16:55;100899.09;;;16.93;100.00
4449;BME280;2237;51.870;6.160;2023-04-28T12:19:22;100870.59;;;18.40;100.00
4449;BME280;2237;51.870;6.160;2023-04-28T12:22:01;100879.16;;;18.76;100.00
4449;BME280;2237;51.870;6.160;2023-04-28T12:24:29;100875.06;;;18.71;100.00
4449;BME280;2237;51.870;6.160;2023-04-28T12:29:44;100891.59;;;17.57;100.00
4449;BME280;2237;51.870;6.160;2023-04-28T12:32:12;100889.81;;;17.58;100.00
4449;BME280;2237;51.870;6.160;2023-04-28T12:34:40;100891.97;;;17.49;100.00
4449;BME280;2237;51.870;6.160;2023-04-28T12:37:07;100883.47;;;17.62;100.00
4449;BME280;2237;51.870;6.160;2023-04-28T12:39:38;100885.47;;;17.57;100.00
4449;BME280;2237;51.870;6.160;2023-04-28T12:42:06;100888.47;;;17.49;100.00
4449;BME280;2237;51.870;6.160;2023-04-28T12:44:33;100884.41;;;17.25;100.00
4449;BME280;2237;51.870;6.160;2023-04-28T12:47:08;100887.47;;;17.16;100.00
4449;BME280;2237;51.870;6.160;2023-04-28T12:49:37;100887.38;;;17.00;100.00
4449;BME280;2237;51.870;6.160;2023-04-28T12:52:04;100886.56;;;16.98;100.00
4449;BME280;2237;51.870;6.160;2023-04-28T12:54:30;100886.88;;;16.92;100.00
4449;BME280;2237;51.870;6.160;2023-04-28T12:56:57;100884.94;;;16.95;100.00
4449;BME280;2237;51.870;6.160;2023-04-28T12:59:23;100883.56;;;16.88;100.00
4449;BME280;2237;51.870;6.160;2023-04-28T13:01:50;100890.81;;;17.19;100.00
4449;BME280;2237;51.870;6.160;2023-04-28T13:04:17;100892.25;;;17.26;100.00
4449;BME280;2237;51.870;6.160;2023-04-28T13:06:44;100896.53;;;17.10;100.00
4449;BME280;2237;51.870;6.160;2023-04-28T13:09:11;100897.91;;;16.81;100.00
4449;BME280;2237;51.870;6.160;2023-04-28T13:11:38;100914.22;;;16.51;100.00
4449;BME280;2237;51.870;6.160;2023-04-28T13:14:05;100910.72;;;16.50;100.00
4449;BME280;2237;51.870;6.160;2023-04-28T13:16:31;100920.78;;;16.22;100.00
4449;BME280;2237;51.870;6.160;2023-04-28T13:18:57;100920.56;;;16.26;100.00
4449;BME280;2237;51.870;6.160;2023-04-28T13:21:24;100916.16;;;16.27;100.00
4449;BME280;2237;51.870;6.160;2023-04-28T13:23:52;100919.81;;;16.43;100.00
4449;BME280;2237;51.870;6.160;2023-04-28T13:26:19;100912.53;;;16.29;100.00
4449;BME280;2237;51.870;6.160;2023-04-28T13:28:46;100922.44;;;16.43;100.00
4449;BME280;2237;51.870;6.160;2023-04-28T13:31:13;100913.28;;;16.13;100.00
4449;BME280;2237;51.870;6.160;2023-04-28T13:33:40;100925.50;;;16.14;100.00
4449;BME280;2237;51.870;6.160;2023-04-28T13:36:07;100916.75;;;16.33;100.00
4449;BME280;2237;51.870;6.160;2023-04-28T13:38:34;100904.69;;;16.09;100.00
4449;BME280;2237;51.870;6.160;2023-04-28T13:41:01;100915.25;;;15.88;100.00